AKST,Max TemperatureF,Mean TemperatureF,Min TemperatureF,Max Dew PointF,MeanDew PointF,Min DewpointF,Max Humidity, Mean Humidity, Min Humidity, Max Sea Level PressureIn, Mean Sea Level PressureIn, Min Sea Level PressureIn, Max VisibilityMiles, Mean VisibilityMiles, Min VisibilityMiles, Max Wind SpeedMPH, Mean Wind SpeedMPH, Max Gust SpeedMPH,PrecipitationIn, CloudCover, Events, WindDirDegrees
2013-1-1,48,42,35,34,24,12,93,54,24,30.22,30.04,29.94,10,10,10,16,6,31,0.41,7,,125
2013-1-2,35,34,32,32,31,30,93,90,87,30.02,29.90,29.84,10,6,1,7,3,,0.92,8,,237
2013-1-3,39,34,28,36,31,27,100,90,81,30.02,29.89,29.78,10,4,0,12,1,18,0.42,8,,127
2013-1-4,39,36,33,34,33,30,100,89,70,30.09,30.00,29.87,10,10,5,8,1,,0.03,6,,244
2013-1-5,44,38,33,36,33,27,93,78,49,29.89,29.75,29.66,10,10,7,14,5,23,0.20,7,,132
2013-1-6,41,37,33,34,31,28,100,82,61,29.77,29.69,29.47,10,10,4,9,2,,0.04,7,,186
2013-1-7,37,35,33,36,33,30,100,91,81,29.76,29.55,29.40,10,8,2,9,2,,0.07,8,,230
2013-1-8,35,30,26,34,29,25,100,90,81,29.78,29.72,29.64,10,8,0,6,2,,0.13,5,,218
2013-1-9,30,26,21,28,25,18,100,91,80,30.20,29.94,29.67,10,10,1,6,2,,0.00,4,Fog,175
2013-1-10,28,27,26,27,25,21,93,89,80,30.30,30.24,30.20,10,9,2,5,1,,0.00,8,,238
2013-1-11,30,29,28,28,27,25,93,90,86,30.31,30.26,30.22,10,10,3,6,3,,0.00,8,,242
2013-1-12,30,28,26,28,26,25,100,90,86,30.43,30.39,30.31,10,10,5,5,1,,0.00,6,,233
2013-1-13,35,32,30,34,31,28,100,90,87,30.41,30.38,30.37,8,4,2,5,1,,0.13,8,,224
2013-1-14,39,36,33,39,35,32,100,94,87,30.40,30.37,30.35,10,3,0,7,1,,0.16,8,,230
2013-1-15,41,37,33,37,34,32,100,91,81,30.41,30.31,30.26,10,6,2,8,3,,0.63,8,,181
2013-1-16,37,35,33,36,34,32,100,93,87,30.39,30.22,29.93,10,4,0,6,1,,0.44,8,,242
2013-1-17,42,38,33,39,36,30,93,84,75,29.96,29.81,29.70,10,5,3,15,7,23,0.48,7,Rain,182
2013-1-18,37,34,30,34,31,28,93,88,75,30.28,30.17,29.97,10,9,5,8,2,,0.01,7,,214
2013-1-19,35,34,32,32,30,28,93,87,81,30.33,30.31,30.29,10,10,10,5,0,,0.00,6,,155
2013-1-20,39,34,30,34,31,28,93,84,70,30.31,30.25,30.20,10,10,10,8,2,,0.00,5,,249
2013-1-21,39,36,33,36,33,30,93,88,75,30.21,30.06,29.85,10,10,5,9,3,,0.00,5,,243
2013-1-22,48,39,30,36,31,28,93,76,46,29.84,29.74,29.66,10,10,8,14,4,30,0.16,5,,224
2013-1-23,39,37,35,36,35,34,93,92,87,29.77,29.68,29.64,10,10,6,6,1,,0.26,7,,231
2013-1-24,44,40,35,36,33,28,100,81,53,29.79,29.60,29.33,10,9,3,16,2,25,0.06,7,Rain,102
2013-1-25,42,40,37,36,35,32,93,82,66,29.63,29.49,29.34,10,10,9,17,8,24,0.19,7,,123
2013-1-26,39,36,33,36,33,28,93,87,75,29.67,29.65,29.63,10,8,3,12,2,,0.29,8,,195
2013-1-27,33,30,28,30,28,25,93,83,70,29.82,29.75,29.67,10,10,3,8,2,,0.03,6,,220
2013-1-28,33,26,19,28,16,9,87,74,63,30.17,29.97,29.73,10,10,3,18,6,25,0.00,8,Snow,268
2013-1-29,28,22,17,27,21,9,93,89,63,30.18,30.03,29.92,7,2,0,10,5,,0.13,8,Snow,264
2013-1-30,33,30,28,30,29,27,100,91,86,30.21,30.11,29.88,10,7,2,6,0,,0.27,8,,259
2013-1-31,37,35,33,36,33,30,93,92,87,30.15,29.99,29.87,10,3,0,6,2,,0.26,8,,249